createdAt,value
2017-12-16T00:00:04.603Z,1002.45
2017-12-16T00:05:03.166Z,1002.59
2017-12-16T00:10:02.990Z,1002.59
2017-12-16T00:15:03.591Z,1002.6
2017-12-16T00:20:03.230Z,1002.62
2017-12-16T00:25:03.668Z,1002.74
2017-12-16T00:30:03.226Z,1002.82
2017-12-16T00:35:03.636Z,1002.85
2017-12-16T00:40:03.247Z,1002.89
2017-12-16T00:45:03.677Z,1002.91
2017-12-16T00:50:03.414Z,1002.92
2017-12-16T00:55:02.988Z,1002.88
2017-12-16T01:00:03.623Z,1002.86
2017-12-16T01:05:03.205Z,1002.93
2017-12-16T01:10:02.792Z,1002.98
2017-12-16T01:15:03.472Z,1003.09
2017-12-16T01:20:03.096Z,1003.15
2017-12-16T01:25:03.492Z,1003.19
2017-12-16T01:30:02.973Z,1003.26
2017-12-16T01:35:03.497Z,1003.29
2017-12-16T01:40:03.170Z,1003.29
2017-12-16T01:45:03.661Z,1003.36
2017-12-16T01:50:03.188Z,1003.49
2017-12-16T01:55:02.770Z,1003.58
2017-12-16T02:00:03.177Z,1003.65
2017-12-16T02:05:03.291Z,1003.65
2017-12-16T02:10:03.036Z,1003.79
2017-12-16T02:15:03.611Z,1003.86
2017-12-16T02:20:03.231Z,1003.94
2017-12-16T02:25:02.765Z,1003.96
2017-12-16T02:30:03.331Z,1004.09
2017-12-16T02:35:02.995Z,1004.09
2017-12-16T02:40:03.700Z,1004.11
2017-12-16T02:45:03.355Z,1004.1
2017-12-16T02:50:02.986Z,1004.07
2017-12-16T02:55:03.463Z,1004.18
2017-12-16T03:00:03.045Z,1004.26
2017-12-16T03:05:03.508Z,1004.32
2017-12-16T03:10:03.217Z,1004.4
2017-12-16T03:15:02.690Z,1004.37
2017-12-16T03:20:03.209Z,1004.42
2017-12-16T03:25:02.832Z,1004.52
2017-12-16T03:30:03.591Z,1004.48
2017-12-16T03:35:03.364Z,1004.54
2017-12-16T03:40:02.940Z,1004.54
2017-12-16T03:45:03.438Z,1004.57
2017-12-16T03:50:02.956Z,1004.58
2017-12-16T03:55:03.477Z,1004.67
2017-12-16T04:00:02.928Z,1004.7
2017-12-16T04:05:03.542Z,1004.75
2017-12-16T04:10:02.968Z,1004.81
2017-12-16T04:15:03.500Z,1004.87
2017-12-16T04:20:03.233Z,1004.91
2017-12-16T04:25:02.725Z,1004.97
2017-12-16T04:30:03.247Z,1004.91
2017-12-16T04:35:02.870Z,1004.99
2017-12-16T04:40:03.362Z,1005.05
2017-12-16T04:45:02.995Z,1005.12
2017-12-16T04:50:03.542Z,1005.15
2017-12-16T04:55:03.224Z,1005.26
2017-12-16T05:00:02.749Z,1005.4
2017-12-16T05:05:03.423Z,1005.36
2017-12-16T05:10:03.074Z,1005.4
2017-12-16T05:15:02.694Z,1005.41
2017-12-16T05:20:03.261Z,1005.41
2017-12-16T05:25:02.936Z,1005.51
2017-12-16T05:30:03.582Z,1005.48
2017-12-16T05:35:03.177Z,1005.5
2017-12-16T05:40:03.665Z,1005.51
2017-12-16T05:45:03.219Z,1005.56
2017-12-16T05:50:02.808Z,1005.54
2017-12-16T05:55:03.321Z,1005.62
2017-12-16T06:00:02.926Z,1005.73
2017-12-16T06:05:03.418Z,1005.7
2017-12-16T06:10:03.184Z,1005.87
2017-12-16T06:15:02.853Z,1005.9
2017-12-16T06:20:03.476Z,1005.96
2017-12-16T06:25:02.987Z,1006.03
2017-12-16T06:30:03.543Z,1006.16
2017-12-16T06:35:03.236Z,1006.27
2017-12-16T06:40:03.680Z,1006.34
2017-12-16T06:45:03.083Z,1006.36
2017-12-16T06:50:03.635Z,1006.46
2017-12-16T06:55:03.259Z,1006.58
2017-12-16T07:00:02.824Z,1006.59
2017-12-16T07:05:03.357Z,1006.64
2017-12-16T07:10:02.901Z,1006.86
2017-12-16T07:15:03.608Z,1006.93
2017-12-16T07:20:03.133Z,1006.92
2017-12-16T07:25:03.554Z,1006.96
2017-12-16T07:30:03.358Z,1006.99
2017-12-16T07:35:03.023Z,1007.22
2017-12-16T07:40:03.533Z,1007.38
2017-12-16T07:45:03.040Z,1007.38
2017-12-16T07:50:03.706Z,1007.45
2017-12-16T07:55:03.254Z,1007.61
2017-12-16T08:00:03.631Z,1007.7
2017-12-16T08:05:03.382Z,1007.74
2017-12-16T08:10:02.848Z,1007.82
2017-12-16T08:15:03.317Z,1007.93
2017-12-16T08:20:02.758Z,1007.91
2017-12-16T08:25:03.276Z,1007.89
2017-12-16T08:30:02.875Z,1007.97
2017-12-16T08:35:03.332Z,1008.11
2017-12-16T08:40:02.867Z,1008.19
2017-12-16T08:45:03.349Z,1008.2
2017-12-16T08:50:03.001Z,1008.29
2017-12-16T08:55:03.434Z,1008.4
2017-12-16T09:00:02.835Z,1008.48
2017-12-16T09:05:03.545Z,1008.58
2017-12-16T09:10:03.179Z,1008.74
2017-12-16T09:15:03.655Z,1008.9
2017-12-16T09:20:03.349Z,1008.84
2017-12-16T09:25:02.729Z,1008.89
2017-12-16T09:30:03.245Z,1009.02
2017-12-16T09:35:02.847Z,1009.1
2017-12-16T09:40:03.309Z,1009.06
2017-12-16T09:45:03.019Z,1009.14
2017-12-16T09:50:03.565Z,1009.2
2017-12-16T09:55:03.039Z,1009.29
2017-12-16T10:00:03.594Z,1009.28
2017-12-16T10:05:03.265Z,1009.34
2017-12-16T10:10:02.791Z,1009.37
2017-12-16T10:15:03.420Z,1009.41
2017-12-16T10:20:03.119Z,1009.5
2017-12-16T10:25:02.808Z,1009.55
2017-12-16T10:30:03.390Z,1009.53
2017-12-16T10:35:02.680Z,1009.54
2017-12-16T10:40:03.170Z,1009.59
2017-12-16T10:45:02.732Z,1009.61
2017-12-16T10:50:03.405Z,1009.63
2017-12-16T10:55:03.037Z,1009.6
2017-12-16T11:00:03.573Z,1009.61
2017-12-16T11:05:03.101Z,1009.63
2017-12-16T11:10:03.636Z,1009.71
2017-12-16T11:15:03.169Z,1009.83
2017-12-16T11:20:02.823Z,1009.79
2017-12-16T11:25:03.430Z,1009.86
2017-12-16T11:30:02.859Z,1009.88
2017-12-16T11:35:03.568Z,1009.91
2017-12-16T11:40:03.180Z,1009.88
2017-12-16T11:45:03.607Z,1009.84
2017-12-16T11:50:03.267Z,1009.77
2017-12-16T11:55:02.911Z,1009.87
2017-12-16T12:00:03.336Z,1009.86
2017-12-16T12:05:02.893Z,1009.89
2017-12-16T12:10:03.573Z,1009.92
2017-12-16T12:15:03.105Z,1009.99
2017-12-16T12:20:02.888Z,1010
2017-12-16T12:25:03.448Z,1010.13
2017-12-16T12:30:02.920Z,1010.09
2017-12-16T12:35:03.458Z,1010.1
2017-12-16T12:40:03.135Z,1010.26
2017-12-16T12:45:02.730Z,1010.2
2017-12-16T12:50:03.457Z,1010.21
2017-12-16T12:55:03.099Z,1010.28
2017-12-16T13:00:03.563Z,1010.26
2017-12-16T13:10:03.586Z,1010.37
2017-12-16T13:15:03.014Z,1010.34
2017-12-16T13:20:03.580Z,1010.38
2017-12-16T13:25:03.031Z,1010.43
2017-12-16T13:30:03.682Z,1010.43
2017-12-16T13:35:03.339Z,1010.47
2017-12-16T13:40:02.958Z,1010.42
2017-12-16T13:45:03.496Z,1010.56
2017-12-16T13:50:03.153Z,1010.52
2017-12-16T13:55:03.655Z,1010.59
2017-12-16T14:00:03.152Z,1010.7
2017-12-16T14:05:02.672Z,1010.74
2017-12-16T14:10:03.440Z,1010.7
2017-12-16T14:15:02.871Z,1010.86
2017-12-16T14:20:03.433Z,1010.89
2017-12-16T14:25:02.988Z,1011
2017-12-16T14:30:03.626Z,1011.08
2017-12-16T14:35:03.347Z,1011.2
2017-12-16T14:40:03.087Z,1011.19
2017-12-16T14:45:02.772Z,1011.3
2017-12-16T14:50:03.225Z,1011.4
2017-12-16T14:55:03.677Z,1011.47
2017-12-16T15:00:03.170Z,1011.58
2017-12-16T15:05:02.695Z,1011.68
2017-12-16T15:10:03.321Z,1011.73
2017-12-16T15:15:02.999Z,1011.72
2017-12-16T15:20:03.679Z,1011.8
2017-12-16T15:25:03.213Z,1011.85
2017-12-16T15:30:02.885Z,1011.92
2017-12-16T15:35:03.399Z,1011.96
2017-12-16T15:40:03.157Z,1012.03
2017-12-16T15:45:02.938Z,1012.23
2017-12-16T15:50:03.481Z,1012.28
2017-12-16T15:55:02.909Z,1012.31
2017-12-16T16:00:03.497Z,1012.36
2017-12-16T16:05:03.174Z,1012.33
2017-12-16T16:10:03.102Z,1012.47
2017-12-16T16:15:03.682Z,1012.41
2017-12-16T16:20:03.347Z,1012.47
2017-12-16T16:25:03.019Z,1012.53
2017-12-16T16:30:02.691Z,1012.55
2017-12-16T16:35:03.291Z,1012.71
2017-12-16T16:40:02.872Z,1012.81
2017-12-16T16:45:03.371Z,1012.74
2017-12-16T16:50:02.866Z,1012.8
2017-12-16T16:55:03.338Z,1012.78
2017-12-16T17:00:02.757Z,1012.96
2017-12-16T17:05:03.524Z,1012.94
2017-12-16T17:10:03.210Z,1013.03
2017-12-16T17:15:02.957Z,1013.13
2017-12-16T17:20:03.643Z,1013.2
2017-12-16T17:25:03.311Z,1013.22
2017-12-16T17:30:02.894Z,1013.4
2017-12-16T17:35:03.537Z,1013.44
2017-12-16T17:40:03.225Z,1013.55
2017-12-16T17:45:03.620Z,1013.61
2017-12-16T17:50:03.115Z,1013.68
2017-12-16T17:55:03.569Z,1013.68
2017-12-16T18:00:03.227Z,1013.85
2017-12-16T18:05:02.768Z,1013.81
2017-12-16T18:10:03.356Z,1013.89
2017-12-16T18:15:03.017Z,1013.91
2017-12-16T18:20:03.529Z,1013.96
2017-12-16T18:25:02.972Z,1013.95
2017-12-16T18:30:03.496Z,1013.98
2017-12-16T18:35:02.942Z,1014.01
2017-12-16T18:40:03.427Z,1014.1
2017-12-16T18:45:02.864Z,1014.15
2017-12-16T18:50:03.637Z,1014.22
2017-12-16T18:55:03.174Z,1014.13
2017-12-16T19:00:03.650Z,1014.16
2017-12-16T19:05:03.192Z,1014.29
2017-12-16T19:10:03.680Z,1014.27
2017-12-16T19:15:03.347Z,1014.4
2017-12-16T19:20:02.987Z,1014.49
2017-12-16T19:25:02.743Z,1014.53
2017-12-16T19:30:03.373Z,1014.6
2017-12-16T19:35:02.903Z,1014.68
2017-12-16T19:40:03.418Z,1014.77
2017-12-16T19:45:02.933Z,1014.7
2017-12-16T19:50:03.497Z,1014.72
2017-12-16T19:55:03.017Z,1014.81
2017-12-16T20:00:03.529Z,1014.83
2017-12-16T20:05:02.913Z,1014.98
2017-12-16T20:10:03.636Z,1015.01
2017-12-16T20:15:03.298Z,1014.97
2017-12-16T20:20:03.053Z,1015.07
2017-12-16T20:25:03.482Z,1015.07
2017-12-16T20:30:02.950Z,1015.14
2017-12-16T20:35:03.509Z,1015.16
2017-12-16T20:40:03.156Z,1015.25
2017-12-16T20:45:02.746Z,1015.27
2017-12-16T20:50:03.512Z,1015.3
2017-12-16T20:55:03.152Z,1015.39
2017-12-16T21:00:02.777Z,1015.49
2017-12-16T21:05:03.262Z,1015.38
2017-12-16T21:10:03.052Z,1015.46
2017-12-16T21:15:03.633Z,1015.52
2017-12-16T21:20:03.257Z,1015.49
2017-12-16T21:25:02.966Z,1015.53
2017-12-16T21:30:03.407Z,1015.5
2017-12-16T21:35:03.008Z,1015.6
2017-12-16T21:40:03.637Z,1015.67
2017-12-16T21:45:03.174Z,1015.67
2017-12-16T21:50:02.766Z,1015.71
2017-12-16T21:55:03.220Z,1015.73
2017-12-16T22:00:03.918Z,1015.71
2017-12-16T22:05:03.484Z,1015.8
2017-12-16T22:10:03.013Z,1015.8
2017-12-16T22:15:03.590Z,1015.84
2017-12-16T22:20:03.265Z,1015.93
2017-12-16T22:25:03.702Z,1015.95
2017-12-16T22:30:03.521Z,1016.01
2017-12-16T22:35:03.280Z,1015.97
2017-12-16T22:40:02.767Z,1016.03
2017-12-16T22:45:03.321Z,1016.01
2017-12-16T22:50:02.793Z,1016.12
2017-12-16T22:55:03.259Z,1016.1
2017-12-16T23:00:02.858Z,1016.16
2017-12-16T23:05:03.320Z,1016.25
2017-12-16T23:10:03.094Z,1016.33
2017-12-16T23:15:03.530Z,1016.29
2017-12-16T23:20:03.206Z,1016.28
2017-12-16T23:25:03.635Z,1016.33
2017-12-16T23:30:03.454Z,1016.46
2017-12-16T23:35:03.173Z,1016.48
2017-12-16T23:40:02.789Z,1016.43
2017-12-16T23:45:03.272Z,1016.44
2017-12-16T23:50:02.947Z,1016.5
2017-12-16T23:55:03.617Z,1016.53
